sensor_id;sensor_type;location;lat;lon;timestamp;P1;durP1;ratioP1;P2;durP2;ratioP2
82985;SDS011;72786;53.546;9.910;2024-01-15T00:00:51;3.88;;;0.70;;
82985;SDS011;72786;53.546;9.910;2024-01-15T00:03:17;3.28;;;0.55;;
82985;SDS011;72786;53.546;9.910;2024-01-15T00:05:44;6.47;;;0.85;;
82985;SDS011;72786;53.546;9.910;2024-01-15T00:08:10;8.75;;;0.98;;
82985;SDS011;72786;53.546;9.910;2024-01-15T00:10:37;5.80;;;0.90;;
82985;SDS011;72786;53.546;9.910;2024-01-15T00:13:03;5.25;;;1.33;;
82985;SDS011;72786;53.546;9.910;2024-01-15T00:15:30;7.88;;;1.02;;
82985;SDS011;72786;53.546;9.910;2024-01-15T00:17:56;8.00;;;1.00;;
82985;SDS011;72786;53.546;9.910;2024-01-15T00:20:23;10.63;;;1.00;;
82985;SDS011;72786;53.546;9.910;2024-01-15T00:22:51;6.10;;;0.93;;
82985;SDS011;72786;53.546;9.910;2024-01-15T00:25:17;4.38;;;1.02;;
82985;SDS011;72786;53.546;9.910;2024-01-15T00:27:44;7.85;;;0.60;;
82985;SDS011;72786;53.546;9.910;2024-01-15T00:30:10;7.07;;;1.13;;
82985;SDS011;72786;53.546;9.910;2024-01-15T00:32:38;7.10;;;0.90;;
82985;SDS011;72786;53.546;9.910;2024-01-15T00:35:04;10.45;;;1.05;;
82985;SDS011;72786;53.546;9.910;2024-01-15T00:37:31;5.05;;;0.85;;
82985;SDS011;72786;53.546;9.910;2024-01-15T00:39:58;10.18;;;1.30;;
82985;SDS011;72786;53.546;9.910;2024-01-15T00:42:25;10.65;;;0.75;;
82985;SDS011;72786;53.546;9.910;2024-01-15T00:44:51;9.90;;;1.10;;
82985;SDS011;72786;53.546;9.910;2024-01-15T00:47:18;7.30;;;1.00;;
82985;SDS011;72786;53.546;9.910;2024-01-15T00:49:44;3.30;;;0.77;;
82985;SDS011;72786;53.546;9.910;2024-01-15T00:52:11;5.22;;;0.75;;
82985;SDS011;72786;53.546;9.910;2024-01-15T00:54:37;10.05;;;0.90;;
82985;SDS011;72786;53.546;9.910;2024-01-15T00:57:05;4.35;;;0.85;;
82985;SDS011;72786;53.546;9.910;2024-01-15T00:59:31;13.27;;;1.58;;
82985;SDS011;72786;53.546;9.910;2024-01-15T01:01:58;8.77;;;0.75;;
82985;SDS011;72786;53.546;9.910;2024-01-15T01:04:24;6.78;;;0.80;;
82985;SDS011;72786;53.546;9.910;2024-01-15T01:06:51;13.88;;;1.30;;
82985;SDS011;72786;53.546;9.910;2024-01-15T01:09:17;11.02;;;1.40;;
82985;SDS011;72786;53.546;9.910;2024-01-15T01:11:44;8.93;;;1.17;;
82985;SDS011;72786;53.546;9.910;2024-01-15T01:14:10;10.40;;;0.82;;
82985;SDS011;72786;53.546;9.910;2024-01-15T01:16:37;7.68;;;0.75;;
82985;SDS011;72786;53.546;9.910;2024-01-15T01:19:05;8.50;;;1.00;;
82985;SDS011;72786;53.546;9.910;2024-01-15T01:21:33;9.13;;;1.00;;
82985;SDS011;72786;53.546;9.910;2024-01-15T01:24:00;8.52;;;0.88;;
82985;SDS011;72786;53.546;9.910;2024-01-15T01:26:26;8.65;;;1.23;;
82985;SDS011;72786;53.546;9.910;2024-01-15T01:28:53;7.03;;;1.50;;
82985;SDS011;72786;53.546;9.910;2024-01-15T01:31:19;9.43;;;1.20;;
82985;SDS011;72786;53.546;9.910;2024-01-15T01:33:46;11.32;;;1.00;;
82985;SDS011;72786;53.546;9.910;2024-01-15T01:36:12;7.38;;;1.00;;
82985;SDS011;72786;53.546;9.910;2024-01-15T01:38:39;10.60;;;1.50;;
82985;SDS011;72786;53.546;9.910;2024-01-15T01:41:06;8.57;;;0.80;;
82985;SDS011;72786;53.546;9.910;2024-01-15T01:43:32;12.07;;;1.30;;
82985;SDS011;72786;53.546;9.910;2024-01-15T01:46:00;9.43;;;1.10;;
82985;SDS011;72786;53.546;9.910;2024-01-15T01:48:27;5.18;;;1.35;;
82985;SDS011;72786;53.546;9.910;2024-01-15T01:50:57;9.60;;;1.15;;
82985;SDS011;72786;53.546;9.910;2024-01-15T01:53:25;7.75;;;0.85;;
82985;SDS011;72786;53.546;9.910;2024-01-15T01:55:53;7.10;;;0.88;;
82985;SDS011;72786;53.546;9.910;2024-01-15T01:58:20;6.05;;;1.00;;
82985;SDS011;72786;53.546;9.910;2024-01-15T02:00:47;5.53;;;0.88;;
82985;SDS011;72786;53.546;9.910;2024-01-15T02:03:14;5.88;;;0.90;;
82985;SDS011;72786;53.546;9.910;2024-01-15T02:05:40;8.55;;;0.85;;
82985;SDS011;72786;53.546;9.910;2024-01-15T02:08:09;9.15;;;1.23;;
82985;SDS011;72786;53.546;9.910;2024-01-15T02:10:35;7.47;;;0.98;;
82985;SDS011;72786;53.546;9.910;2024-01-15T02:13:02;9.23;;;0.70;;
82985;SDS011;72786;53.546;9.910;2024-01-15T02:15:29;9.88;;;1.48;;
82985;SDS011;72786;53.546;9.910;2024-01-15T02:17:56;4.72;;;0.60;;
82985;SDS011;72786;53.546;9.910;2024-01-15T02:20:23;3.63;;;0.50;;
82985;SDS011;72786;53.546;9.910;2024-01-15T02:22:49;8.68;;;1.05;;
82985;SDS011;72786;53.546;9.910;2024-01-15T02:25:15;5.50;;;0.60;;
82985;SDS011;72786;53.546;9.910;2024-01-15T02:27:42;6.85;;;0.80;;
82985;SDS011;72786;53.546;9.910;2024-01-15T02:30:13;5.78;;;0.80;;
82985;SDS011;72786;53.546;9.910;2024-01-15T02:32:39;9.50;;;1.33;;
82985;SDS011;72786;53.546;9.910;2024-01-15T02:35:06;4.93;;;1.05;;
82985;SDS011;72786;53.546;9.910;2024-01-15T02:37:33;7.47;;;1.48;;
82985;SDS011;72786;53.546;9.910;2024-01-15T02:39:59;6.47;;;1.17;;
82985;SDS011;72786;53.546;9.910;2024-01-15T02:42:26;6.60;;;1.02;;
82985;SDS011;72786;53.546;9.910;2024-01-15T02:44:52;6.05;;;1.02;;
82985;SDS011;72786;53.546;9.910;2024-01-15T02:47:19;8.55;;;0.82;;
82985;SDS011;72786;53.546;9.910;2024-01-15T02:49:45;4.93;;;0.80;;
82985;SDS011;72786;53.546;9.910;2024-01-15T02:52:12;6.55;;;0.80;;
82985;SDS011;72786;53.546;9.910;2024-01-15T02:54:38;7.38;;;0.80;;
82985;SDS011;72786;53.546;9.910;2024-01-15T02:57:05;7.97;;;1.23;;
82985;SDS011;72786;53.546;9.910;2024-01-15T02:59:31;5.30;;;0.80;;
82985;SDS011;72786;53.546;9.910;2024-01-15T03:01:58;6.07;;;1.27;;
82985;SDS011;72786;53.546;9.910;2024-01-15T03:04:24;5.07;;;1.13;;
82985;SDS011;72786;53.546;9.910;2024-01-15T03:06:51;8.68;;;0.88;;
82985;SDS011;72786;53.546;9.910;2024-01-15T03:09:17;5.90;;;1.00;;
82985;SDS011;72786;53.546;9.910;2024-01-15T03:11:44;4.15;;;0.52;;
82985;SDS011;72786;53.546;9.910;2024-01-15T03:14:10;6.35;;;0.57;;
82985;SDS011;72786;53.546;9.910;2024-01-15T03:16:37;2.42;;;0.47;;
82985;SDS011;72786;53.546;9.910;2024-01-15T03:19:04;6.85;;;0.82;;
82985;SDS011;72786;53.546;9.910;2024-01-15T03:21:30;6.78;;;0.85;;
82985;SDS011;72786;53.546;9.910;2024-01-15T03:23:57;10.15;;;1.02;;
82985;SDS011;72786;53.546;9.910;2024-01-15T03:26:23;6.32;;;0.90;;
82985;SDS011;72786;53.546;9.910;2024-01-15T03:28:50;6.63;;;0.93;;
82985;SDS011;72786;53.546;9.910;2024-01-15T03:31:17;6.45;;;1.15;;
82985;SDS011;72786;53.546;9.910;2024-01-15T03:33:44;10.98;;;0.90;;
82985;SDS011;72786;53.546;9.910;2024-01-15T03:36:11;9.70;;;1.30;;
82985;SDS011;72786;53.546;9.910;2024-01-15T03:38:40;10.35;;;1.30;;
82985;SDS011;72786;53.546;9.910;2024-01-15T03:41:07;11.25;;;1.48;;
82985;SDS011;72786;53.546;9.910;2024-01-15T03:43:34;10.65;;;1.25;;
82985;SDS011;72786;53.546;9.910;2024-01-15T03:46:00;10.15;;;1.42;;
82985;SDS011;72786;53.546;9.910;2024-01-15T03:48:28;9.93;;;1.27;;
82985;SDS011;72786;53.546;9.910;2024-01-15T03:50:54;11.52;;;1.63;;
82985;SDS011;72786;53.546;9.910;2024-01-15T03:53:21;9.85;;;1.42;;
82985;SDS011;72786;53.546;9.910;2024-01-15T03:55:47;9.70;;;1.20;;
82985;SDS011;72786;53.546;9.910;2024-01-15T03:58:14;10.20;;;1.60;;
82985;SDS011;72786;53.546;9.910;2024-01-15T04:00:41;9.13;;;1.27;;
82985;SDS011;72786;53.546;9.910;2024-01-15T04:03:09;15.27;;;2.47;;
82985;SDS011;72786;53.546;9.910;2024-01-15T04:05:35;10.38;;;0.93;;
82985;SDS011;72786;53.546;9.910;2024-01-15T04:08:02;9.95;;;1.42;;
82985;SDS011;72786;53.546;9.910;2024-01-15T04:10:29;15.63;;;1.40;;
82985;SDS011;72786;53.546;9.910;2024-01-15T04:12:55;13.18;;;1.23;;
82985;SDS011;72786;53.546;9.910;2024-01-15T04:15:22;15.25;;;1.63;;
82985;SDS011;72786;53.546;9.910;2024-01-15T04:17:48;9.30;;;1.05;;
82985;SDS011;72786;53.546;9.910;2024-01-15T04:20:15;11.90;;;1.35;;
82985;SDS011;72786;53.546;9.910;2024-01-15T04:22:41;15.25;;;1.55;;
82985;SDS011;72786;53.546;9.910;2024-01-15T04:25:08;15.00;;;1.60;;
82985;SDS011;72786;53.546;9.910;2024-01-15T04:27:34;9.30;;;1.20;;
82985;SDS011;72786;53.546;9.910;2024-01-15T04:30:01;15.45;;;1.38;;
82985;SDS011;72786;53.546;9.910;2024-01-15T04:32:27;11.25;;;1.58;;
82985;SDS011;72786;53.546;9.910;2024-01-15T04:34:54;19.42;;;2.45;;
82985;SDS011;72786;53.546;9.910;2024-01-15T04:37:21;10.13;;;1.42;;
82985;SDS011;72786;53.546;9.910;2024-01-15T04:39:47;11.73;;;1.30;;
82985;SDS011;72786;53.546;9.910;2024-01-15T04:42:14;11.65;;;1.17;;
82985;SDS011;72786;53.546;9.910;2024-01-15T04:44:41;17.23;;;2.17;;
82985;SDS011;72786;53.546;9.910;2024-01-15T04:47:07;10.20;;;1.20;;
82985;SDS011;72786;53.546;9.910;2024-01-15T04:49:34;12.07;;;1.50;;
82985;SDS011;72786;53.546;9.910;2024-01-15T04:52:00;10.02;;;1.27;;
82985;SDS011;72786;53.546;9.910;2024-01-15T04:54:27;15.10;;;2.00;;
82985;SDS011;72786;53.546;9.910;2024-01-15T04:56:53;15.20;;;1.23;;
82985;SDS011;72786;53.546;9.910;2024-01-15T04:59:20;14.68;;;0.95;;
82985;SDS011;72786;53.546;9.910;2024-01-15T05:01:46;8.30;;;0.88;;
82985;SDS011;72786;53.546;9.910;2024-01-15T05:04:13;14.23;;;1.25;;
82985;SDS011;72786;53.546;9.910;2024-01-15T05:06:40;14.00;;;1.45;;
82985;SDS011;72786;53.546;9.910;2024-01-15T05:09:06;10.80;;;1.20;;
82985;SDS011;72786;53.546;9.910;2024-01-15T05:11:33;11.30;;;1.40;;
82985;SDS011;72786;53.546;9.910;2024-01-15T05:13:59;11.80;;;1.77;;
82985;SDS011;72786;53.546;9.910;2024-01-15T05:16:26;10.77;;;1.73;;
82985;SDS011;72786;53.546;9.910;2024-01-15T05:18:52;16.13;;;1.13;;
82985;SDS011;72786;53.546;9.910;2024-01-15T05:21:19;15.55;;;1.70;;
82985;SDS011;72786;53.546;9.910;2024-01-15T05:23:45;9.32;;;1.20;;
82985;SDS011;72786;53.546;9.910;2024-01-15T05:26:12;10.85;;;1.30;;
82985;SDS011;72786;53.546;9.910;2024-01-15T05:28:40;11.30;;;1.77;;
82985;SDS011;72786;53.546;9.910;2024-01-15T05:31:07;14.07;;;1.50;;
82985;SDS011;72786;53.546;9.910;2024-01-15T05:33:34;8.75;;;1.40;;
82985;SDS011;72786;53.546;9.910;2024-01-15T05:36:01;13.88;;;1.73;;
82985;SDS011;72786;53.546;9.910;2024-01-15T05:38:28;11.30;;;1.00;;
82985;SDS011;72786;53.546;9.910;2024-01-15T05:40:54;11.93;;;1.42;;
82985;SDS011;72786;53.546;9.910;2024-01-15T05:43:21;13.57;;;1.92;;
82985;SDS011;72786;53.546;9.910;2024-01-15T05:45:47;10.93;;;1.45;;
82985;SDS011;72786;53.546;9.910;2024-01-15T05:48:14;12.77;;;1.50;;
82985;SDS011;72786;53.546;9.910;2024-01-15T05:50:41;17.80;;;1.52;;
82985;SDS011;72786;53.546;9.910;2024-01-15T05:53:08;11.98;;;1.63;;
82985;SDS011;72786;53.546;9.910;2024-01-15T05:55:35;10.52;;;1.13;;
82985;SDS011;72786;53.546;9.910;2024-01-15T05:58:03;11.30;;;1.35;;
82985;SDS011;72786;53.546;9.910;2024-01-15T06:00:30;9.82;;;0.93;;
82985;SDS011;72786;53.546;9.910;2024-01-15T06:02:56;10.70;;;1.45;;
82985;SDS011;72786;53.546;9.910;2024-01-15T06:05:23;15.73;;;1.30;;
82985;SDS011;72786;53.546;9.910;2024-01-15T06:07:49;14.10;;;1.27;;
82985;SDS011;72786;53.546;9.910;2024-01-15T06:10:15;20.88;;;1.65;;
82985;SDS011;72786;53.546;9.910;2024-01-15T06:12:43;14.52;;;1.35;;
82985;SDS011;72786;53.546;9.910;2024-01-15T06:15:10;16.08;;;1.92;;
82985;SDS011;72786;53.546;9.910;2024-01-15T06:17:36;17.15;;;1.77;;
82985;SDS011;72786;53.546;9.910;2024-01-15T06:20:04;6.85;;;1.15;;
82985;SDS011;72786;53.546;9.910;2024-01-15T06:22:31;9.35;;;1.63;;
82985;SDS011;72786;53.546;9.910;2024-01-15T06:24:57;14.70;;;1.52;;
82985;SDS011;72786;53.546;9.910;2024-01-15T06:27:24;14.95;;;1.33;;
82985;SDS011;72786;53.546;9.910;2024-01-15T06:29:51;14.80;;;1.60;;
82985;SDS011;72786;53.546;9.910;2024-01-15T06:32:17;11.27;;;1.13;;
82985;SDS011;72786;53.546;9.910;2024-01-15T06:34:44;13.40;;;1.35;;
82985;SDS011;72786;53.546;9.910;2024-01-15T06:37:10;12.48;;;1.00;;
82985;SDS011;72786;53.546;9.910;2024-01-15T06:39:37;14.80;;;1.40;;
82985;SDS011;72786;53.546;9.910;2024-01-15T06:42:03;12.75;;;1.73;;
82985;SDS011;72786;53.546;9.910;2024-01-15T06:44:30;12.07;;;1.23;;
82985;SDS011;72786;53.546;9.910;2024-01-15T06:46:56;5.78;;;1.10;;
82985;SDS011;72786;53.546;9.910;2024-01-15T06:49:28;8.18;;;0.88;;
82985;SDS011;72786;53.546;9.910;2024-01-15T06:51:55;9.20;;;1.67;;
82985;SDS011;72786;53.546;9.910;2024-01-15T06:54:22;12.45;;;1.25;;
82985;SDS011;72786;53.546;9.910;2024-01-15T06:56:50;9.63;;;1.77;;
82985;SDS011;72786;53.546;9.910;2024-01-15T06:59:16;9.48;;;1.45;;
82985;SDS011;72786;53.546;9.910;2024-01-15T07:01:45;13.20;;;1.27;;
82985;SDS011;72786;53.546;9.910;2024-01-15T07:04:12;8.68;;;1.50;;
82985;SDS011;72786;53.546;9.910;2024-01-15T07:06:39;9.80;;;1.10;;
82985;SDS011;72786;53.546;9.910;2024-01-15T07:09:06;7.80;;;0.93;;
82985;SDS011;72786;53.546;9.910;2024-01-15T07:11:33;9.90;;;1.20;;
82985;SDS011;72786;53.546;9.910;2024-01-15T07:14:00;10.98;;;1.13;;
82985;SDS011;72786;53.546;9.910;2024-01-15T07:16:26;10.77;;;0.80;;
82985;SDS011;72786;53.546;9.910;2024-01-15T07:19:03;8.07;;;1.08;;
82985;SDS011;72786;53.546;9.910;2024-01-15T07:21:30;5.25;;;0.80;;
82985;SDS011;72786;53.546;9.910;2024-01-15T07:23:56;6.05;;;1.08;;
82985;SDS011;72786;53.546;9.910;2024-01-15T07:26:23;10.32;;;0.98;;
82985;SDS011;72786;53.546;9.910;2024-01-15T07:28:49;4.13;;;0.70;;
82985;SDS011;72786;53.546;9.910;2024-01-15T07:31:16;5.20;;;0.85;;
82985;SDS011;72786;53.546;9.910;2024-01-15T07:33:43;7.40;;;0.90;;
82985;SDS011;72786;53.546;9.910;2024-01-15T07:36:10;9.82;;;1.40;;
82985;SDS011;72786;53.546;9.910;2024-01-15T07:38:37;5.90;;;0.88;;
82985;SDS011;72786;53.546;9.910;2024-01-15T07:41:04;9.68;;;1.10;;
82985;SDS011;72786;53.546;9.910;2024-01-15T07:43:30;13.23;;;1.55;;
82985;SDS011;72786;53.546;9.910;2024-01-15T07:45:56;5.85;;;0.73;;
82985;SDS011;72786;53.546;9.910;2024-01-15T07:48:23;5.65;;;0.88;;
82985;SDS011;72786;53.546;9.910;2024-01-15T07:50:50;7.85;;;0.73;;
82985;SDS011;72786;53.546;9.910;2024-01-15T07:53:16;6.57;;;1.20;;
82985;SDS011;72786;53.546;9.910;2024-01-15T07:55:43;8.52;;;0.90;;
82985;SDS011;72786;53.546;9.910;2024-01-15T07:58:12;5.38;;;0.68;;
82985;SDS011;72786;53.546;9.910;2024-01-15T08:00:42;11.13;;;0.82;;
82985;SDS011;72786;53.546;9.910;2024-01-15T08:03:09;5.57;;;0.80;;
82985;SDS011;72786;53.546;9.910;2024-01-15T08:05:35;8.68;;;0.73;;
82985;SDS011;72786;53.546;9.910;2024-01-15T08:08:02;11.55;;;1.15;;
82985;SDS011;72786;53.546;9.910;2024-01-15T08:10:28;8.70;;;1.00;;
82985;SDS011;72786;53.546;9.910;2024-01-15T08:12:55;8.30;;;0.90;;
82985;SDS011;72786;53.546;9.910;2024-01-15T08:15:21;9.07;;;0.80;;
82985;SDS011;72786;53.546;9.910;2024-01-15T08:17:48;13.10;;;1.23;;
82985;SDS011;72786;53.546;9.910;2024-01-15T08:20:15;4.15;;;0.85;;
82985;SDS011;72786;53.546;9.910;2024-01-15T08:22:42;10.32;;;1.42;;
82985;SDS011;72786;53.546;9.910;2024-01-15T08:25:08;9.23;;;0.98;;
82985;SDS011;72786;53.546;9.910;2024-01-15T08:27:35;5.00;;;0.60;;
82985;SDS011;72786;53.546;9.910;2024-01-15T08:30:02;4.63;;;0.60;;
82985;SDS011;72786;53.546;9.910;2024-01-15T08:32:30;4.70;;;1.05;;
82985;SDS011;72786;53.546;9.910;2024-01-15T08:34:57;2.92;;;0.63;;
82985;SDS011;72786;53.546;9.910;2024-01-15T08:37:23;5.70;;;0.75;;
82985;SDS011;72786;53.546;9.910;2024-01-15T08:39:50;5.65;;;0.75;;
82985;SDS011;72786;53.546;9.910;2024-01-15T08:42:17;8.30;;;1.00;;
82985;SDS011;72786;53.546;9.910;2024-01-15T08:44:44;4.68;;;0.77;;
82985;SDS011;72786;53.546;9.910;2024-01-15T08:47:28;4.32;;;0.55;;
82985;SDS011;72786;53.546;9.910;2024-01-15T08:49:54;5.68;;;0.98;;
82985;SDS011;72786;53.546;9.910;2024-01-15T08:52:21;3.47;;;0.90;;
82985;SDS011;72786;53.546;9.910;2024-01-15T08:54:47;6.47;;;0.70;;
82985;SDS011;72786;53.546;9.910;2024-01-15T08:57:14;9.93;;;0.98;;
82985;SDS011;72786;53.546;9.910;2024-01-15T08:59:40;6.18;;;0.88;;
82985;SDS011;72786;53.546;9.910;2024-01-15T09:02:07;5.32;;;0.88;;
82985;SDS011;72786;53.546;9.910;2024-01-15T09:04:34;6.78;;;1.15;;
82985;SDS011;72786;53.546;9.910;2024-01-15T09:07:00;5.05;;;0.82;;
82985;SDS011;72786;53.546;9.910;2024-01-15T09:09:27;3.55;;;0.80;;
82985;SDS011;72786;53.546;9.910;2024-01-15T09:11:53;5.68;;;0.95;;
82985;SDS011;72786;53.546;9.910;2024-01-15T09:14:20;9.05;;;1.13;;
82985;SDS011;72786;53.546;9.910;2024-01-15T09:17:02;5.57;;;1.00;;
82985;SDS011;72786;53.546;9.910;2024-01-15T09:19:29;6.00;;;1.20;;
82985;SDS011;72786;53.546;9.910;2024-01-15T09:21:56;8.82;;;1.10;;
82985;SDS011;72786;53.546;9.910;2024-01-15T09:24:22;7.03;;;0.85;;
82985;SDS011;72786;53.546;9.910;2024-01-15T09:26:54;5.35;;;0.60;;
82985;SDS011;72786;53.546;9.910;2024-01-15T09:29:20;4.97;;;0.77;;
82985;SDS011;72786;53.546;9.910;2024-01-15T09:31:47;8.18;;;0.93;;
82985;SDS011;72786;53.546;9.910;2024-01-15T09:34:13;7.45;;;1.10;;
82985;SDS011;72786;53.546;9.910;2024-01-15T09:36:40;6.25;;;0.73;;
82985;SDS011;72786;53.546;9.910;2024-01-15T09:39:09;7.53;;;1.13;;
82985;SDS011;72786;53.546;9.910;2024-01-15T09:41:37;4.93;;;0.93;;
82985;SDS011;72786;53.546;9.910;2024-01-15T09:44:04;6.50;;;0.90;;
82985;SDS011;72786;53.546;9.910;2024-01-15T09:46:31;7.25;;;1.00;;
82985;SDS011;72786;53.546;9.910;2024-01-15T09:48:59;5.85;;;0.90;;
82985;SDS011;72786;53.546;9.910;2024-01-15T09:51:26;6.07;;;1.10;;
82985;SDS011;72786;53.546;9.910;2024-01-15T09:53:52;6.47;;;0.70;;
82985;SDS011;72786;53.546;9.910;2024-01-15T09:56:21;5.65;;;1.10;;
82985;SDS011;72786;53.546;9.910;2024-01-15T09:58:48;4.60;;;0.90;;
82985;SDS011;72786;53.546;9.910;2024-01-15T10:01:15;5.38;;;0.80;;
82985;SDS011;72786;53.546;9.910;2024-01-15T10:03:43;4.43;;;0.65;;
82985;SDS011;72786;53.546;9.910;2024-01-15T10:06:10;6.40;;;1.10;;
82985;SDS011;72786;53.546;9.910;2024-01-15T10:08:40;5.18;;;1.33;;
82985;SDS011;72786;53.546;9.910;2024-01-15T10:11:06;2.88;;;1.10;;
82985;SDS011;72786;53.546;9.910;2024-01-15T10:13:33;5.18;;;0.88;;
82985;SDS011;72786;53.546;9.910;2024-01-15T10:16:00;4.05;;;1.17;;
82985;SDS011;72786;53.546;9.910;2024-01-15T10:18:29;2.60;;;0.60;;
82985;SDS011;72786;53.546;9.910;2024-01-15T10:20:56;3.33;;;0.57;;
82985;SDS011;72786;53.546;9.910;2024-01-15T10:23:26;7.10;;;1.08;;
82985;SDS011;72786;53.546;9.910;2024-01-15T10:25:52;4.13;;;0.93;;
82985;SDS011;72786;53.546;9.910;2024-01-15T10:28:19;6.55;;;0.90;;
82985;SDS011;72786;53.546;9.910;2024-01-15T10:30:45;4.05;;;0.50;;
82985;SDS011;72786;53.546;9.910;2024-01-15T10:33:12;5.43;;;0.70;;
82985;SDS011;72786;53.546;9.910;2024-01-15T10:35:39;4.05;;;0.70;;
82985;SDS011;72786;53.546;9.910;2024-01-15T10:38:07;3.30;;;0.60;;
82985;SDS011;72786;53.546;9.910;2024-01-15T10:40:33;3.83;;;0.50;;
82985;SDS011;72786;53.546;9.910;2024-01-15T10:43:00;3.92;;;0.70;;
82985;SDS011;72786;53.546;9.910;2024-01-15T10:45:26;1.50;;;0.43;;
82985;SDS011;72786;53.546;9.910;2024-01-15T10:47:53;3.03;;;0.60;;
82985;SDS011;72786;53.546;9.910;2024-01-15T10:50:25;5.00;;;0.68;;
82985;SDS011;72786;53.546;9.910;2024-01-15T10:52:51;6.68;;;0.70;;
82985;SDS011;72786;53.546;9.910;2024-01-15T10:55:18;2.67;;;0.63;;
82985;SDS011;72786;53.546;9.910;2024-01-15T10:57:46;3.08;;;0.50;;
82985;SDS011;72786;53.546;9.910;2024-01-15T11:00:15;3.72;;;0.70;;
82985;SDS011;72786;53.546;9.910;2024-01-15T11:02:42;6.07;;;0.60;;
82985;SDS011;72786;53.546;9.910;2024-01-15T11:05:09;4.15;;;0.80;;
82985;SDS011;72786;53.546;9.910;2024-01-15T11:07:35;1.83;;;0.57;;
82985;SDS011;72786;53.546;9.910;2024-01-15T11:10:06;4.72;;;0.65;;
82985;SDS011;72786;53.546;9.910;2024-01-15T11:12:36;2.95;;;0.90;;
82985;SDS011;72786;53.546;9.910;2024-01-15T11:15:07;3.42;;;0.47;;
82985;SDS011;72786;53.546;9.910;2024-01-15T11:20:32;1.70;;;0.25;;
82985;SDS011;72786;53.546;9.910;2024-01-15T11:22:59;1.15;;;0.43;;
82985;SDS011;72786;53.546;9.910;2024-01-15T11:25:34;1.73;;;0.40;;
82985;SDS011;72786;53.546;9.910;2024-01-15T11:28:02;2.65;;;0.80;;
82985;SDS011;72786;53.546;9.910;2024-01-15T11:30:30;2.33;;;0.55;;
82985;SDS011;72786;53.546;9.910;2024-01-15T11:32:56;5.85;;;0.50;;
82985;SDS011;72786;53.546;9.910;2024-01-15T11:35:23;1.17;;;0.43;;
82985;SDS011;72786;53.546;9.910;2024-01-15T11:38:28;5.90;;;0.80;;
82985;SDS011;72786;53.546;9.910;2024-01-15T11:40:55;2.20;;;0.60;;
82985;SDS011;72786;53.546;9.910;2024-01-15T11:43:22;1.38;;;0.52;;
82985;SDS011;72786;53.546;9.910;2024-01-15T11:45:50;2.90;;;0.70;;
82985;SDS011;72786;53.546;9.910;2024-01-15T11:48:18;5.70;;;0.70;;
82985;SDS011;72786;53.546;9.910;2024-01-15T11:50:45;3.25;;;0.40;;
82985;SDS011;72786;53.546;9.910;2024-01-15T11:55:51;3.35;;;0.50;;
82985;SDS011;72786;53.546;9.910;2024-01-15T11:58:18;2.33;;;0.55;;
82985;SDS011;72786;53.546;9.910;2024-01-15T12:00:45;3.45;;;0.50;;
82985;SDS011;72786;53.546;9.910;2024-01-15T12:03:15;1.30;;;0.50;;
82985;SDS011;72786;53.546;9.910;2024-01-15T12:05:42;2.75;;;0.80;;
82985;SDS011;72786;53.546;9.910;2024-01-15T12:08:09;2.30;;;0.70;;
82985;SDS011;72786;53.546;9.910;2024-01-15T12:10:39;4.25;;;0.80;;
82985;SDS011;72786;53.546;9.910;2024-01-15T12:13:11;2.22;;;0.73;;
82985;SDS011;72786;53.546;9.910;2024-01-15T12:15:39;2.78;;;1.13;;
82985;SDS011;72786;53.546;9.910;2024-01-15T12:18:08;4.50;;;0.90;;
82985;SDS011;72786;53.546;9.910;2024-01-15T12:20:37;2.92;;;1.00;;
82985;SDS011;72786;53.546;9.910;2024-01-15T12:23:04;3.78;;;1.10;;
82985;SDS011;72786;53.546;9.910;2024-01-15T12:25:34;2.70;;;0.80;;
82985;SDS011;72786;53.546;9.910;2024-01-15T12:28:01;1.67;;;0.82;;
82985;SDS011;72786;53.546;9.910;2024-01-15T12:30:27;1.73;;;0.70;;
82985;SDS011;72786;53.546;9.910;2024-01-15T12:32:55;2.67;;;0.90;;
82985;SDS011;72786;53.546;9.910;2024-01-15T12:35:23;1.88;;;0.90;;
82985;SDS011;72786;53.546;9.910;2024-01-15T12:37:52;5.30;;;0.90;;
82985;SDS011;72786;53.546;9.910;2024-01-15T12:40:20;1.58;;;0.70;;
82985;SDS011;72786;53.546;9.910;2024-01-15T12:42:48;1.83;;;0.80;;
82985;SDS011;72786;53.546;9.910;2024-01-15T12:45:17;1.40;;;0.60;;
82985;SDS011;72786;53.546;9.910;2024-01-15T12:47:44;1.52;;;0.65;;
82985;SDS011;72786;53.546;9.910;2024-01-15T12:50:11;1.42;;;0.68;;
82985;SDS011;72786;53.546;9.910;2024-01-15T12:52:45;2.72;;;0.80;;
82985;SDS011;72786;53.546;9.910;2024-01-15T12:55:13;2.38;;;0.80;;
82985;SDS011;72786;53.546;9.910;2024-01-15T12:57:39;2.63;;;1.20;;
82985;SDS011;72786;53.546;9.910;2024-01-15T13:00:06;3.83;;;1.30;;
82985;SDS011;72786;53.546;9.910;2024-01-15T13:02:37;4.72;;;1.58;;
82985;SDS011;72786;53.546;9.910;2024-01-15T13:05:06;3.20;;;1.33;;
82985;SDS011;72786;53.546;9.910;2024-01-15T13:07:34;5.60;;;1.67;;
82985;SDS011;72786;53.546;9.910;2024-01-15T13:10:01;3.35;;;1.08;;
82985;SDS011;72786;53.546;9.910;2024-01-15T13:12:27;3.83;;;1.50;;
82985;SDS011;72786;53.546;9.910;2024-01-15T13:14:54;2.13;;;1.10;;
82985;SDS011;72786;53.546;9.910;2024-01-15T13:17:20;2.90;;;1.25;;
82985;SDS011;72786;53.546;9.910;2024-01-15T13:19:47;3.63;;;1.50;;
82985;SDS011;72786;53.546;9.910;2024-01-15T13:22:15;4.28;;;1.60;;
82985;SDS011;72786;53.546;9.910;2024-01-15T13:24:42;3.83;;;1.60;;
82985;SDS011;72786;53.546;9.910;2024-01-15T13:27:09;4.80;;;1.67;;
82985;SDS011;72786;53.546;9.910;2024-01-15T13:29:35;3.22;;;1.63;;
82985;SDS011;72786;53.546;9.910;2024-01-15T13:32:02;5.70;;;2.22;;
82985;SDS011;72786;53.546;9.910;2024-01-15T13:34:29;4.75;;;2.08;;
82985;SDS011;72786;53.546;9.910;2024-01-15T13:36:56;4.18;;;2.15;;
82985;SDS011;72786;53.546;9.910;2024-01-15T13:39:26;6.25;;;2.60;;
82985;SDS011;72786;53.546;9.910;2024-01-15T13:41:52;4.85;;;2.20;;
82985;SDS011;72786;53.546;9.910;2024-01-15T13:44:19;6.53;;;2.40;;
82985;SDS011;72786;53.546;9.910;2024-01-15T13:46:48;4.60;;;2.13;;
82985;SDS011;72786;53.546;9.910;2024-01-15T13:49:14;6.80;;;2.33;;
82985;SDS011;72786;53.546;9.910;2024-01-15T13:51:41;5.40;;;2.20;;
82985;SDS011;72786;53.546;9.910;2024-01-15T13:54:08;3.95;;;1.83;;
82985;SDS011;72786;53.546;9.910;2024-01-15T13:56:34;4.78;;;2.03;;
82985;SDS011;72786;53.546;9.910;2024-01-15T13:59:01;4.22;;;2.22;;
82985;SDS011;72786;53.546;9.910;2024-01-15T14:01:30;7.50;;;1.90;;
82985;SDS011;72786;53.546;9.910;2024-01-15T14:03:57;2.78;;;1.60;;
82985;SDS011;72786;53.546;9.910;2024-01-15T14:06:24;5.22;;;1.88;;
82985;SDS011;72786;53.546;9.910;2024-01-15T14:08:50;4.13;;;1.88;;
82985;SDS011;72786;53.546;9.910;2024-01-15T14:11:17;4.57;;;2.00;;
82985;SDS011;72786;53.546;9.910;2024-01-15T14:13:43;4.57;;;1.38;;
82985;SDS011;72786;53.546;9.910;2024-01-15T14:16:09;3.58;;;1.77;;
82985;SDS011;72786;53.546;9.910;2024-01-15T14:18:38;2.60;;;1.30;;
82985;SDS011;72786;53.546;9.910;2024-01-15T14:21:04;5.05;;;1.67;;
82985;SDS011;72786;53.546;9.910;2024-01-15T14:23:31;6.60;;;2.55;;
82985;SDS011;72786;53.546;9.910;2024-01-15T14:25:57;7.15;;;2.35;;
82985;SDS011;72786;53.546;9.910;2024-01-15T14:28:24;7.95;;;1.90;;
82985;SDS011;72786;53.546;9.910;2024-01-15T14:30:50;6.03;;;1.65;;
82985;SDS011;72786;53.546;9.910;2024-01-15T14:33:17;4.30;;;1.90;;
82985;SDS011;72786;53.546;9.910;2024-01-15T14:35:44;4.63;;;1.95;;
82985;SDS011;72786;53.546;9.910;2024-01-15T14:38:10;6.03;;;2.10;;
82985;SDS011;72786;53.546;9.910;2024-01-15T14:40:37;7.00;;;2.13;;
82985;SDS011;72786;53.546;9.910;2024-01-15T14:43:03;7.00;;;2.00;;
82985;SDS011;72786;53.546;9.910;2024-01-15T14:45:30;4.90;;;1.80;;
82985;SDS011;72786;53.546;9.910;2024-01-15T14:47:57;5.18;;;1.90;;
82985;SDS011;72786;53.546;9.910;2024-01-15T14:50:24;8.15;;;2.00;;